createdAt,value
2023-02-20T00:00:53.888Z,6.20
2023-02-20T00:03:21.172Z,6.27
2023-02-20T00:05:48.531Z,6.31
2023-02-20T00:08:15.879Z,6.37
2023-02-20T00:10:42.893Z,6.40
2023-02-20T00:13:09.999Z,6.39
2023-02-20T00:15:37.339Z,6.40
2023-02-20T00:18:04.464Z,6.39
2023-02-20T00:20:33.325Z,6.41
2023-02-20T00:23:00.610Z,6.37
2023-02-20T00:25:27.762Z,6.36
2023-02-20T00:27:54.922Z,6.33
2023-02-20T00:30:24.388Z,6.29
2023-02-20T00:32:54.626Z,6.28
2023-02-20T00:35:23.532Z,6.25
2023-02-20T00:37:52.699Z,6.20
2023-02-20T00:40:23.168Z,6.18
2023-02-20T00:42:50.300Z,6.16
2023-02-20T00:45:18.830Z,6.16
2023-02-20T00:47:46.360Z,6.13
2023-02-20T00:50:17.063Z,6.13
2023-02-20T00:52:44.281Z,6.09
2023-02-20T00:55:11.909Z,6.08
2023-02-20T00:57:39.064Z,6.08
2023-02-20T01:00:18.317Z,6.08
2023-02-20T01:02:45.459Z,6.07
2023-02-20T01:05:12.888Z,6.09
2023-02-20T01:07:40.057Z,6.09
2023-02-20T01:10:08.040Z,6.09
2023-02-20T01:12:35.110Z,6.08
2023-02-20T01:15:02.223Z,6.07
2023-02-20T01:17:29.526Z,6.09
2023-02-20T01:19:56.820Z,6.08
2023-02-20T01:22:24.058Z,6.07
2023-02-20T01:24:51.212Z,6.07
2023-02-20T01:27:18.250Z,6.06
2023-02-20T01:29:45.634Z,6.05
2023-02-20T01:32:13.380Z,6.02
2023-02-20T01:34:40.626Z,6.04
2023-02-20T01:37:07.694Z,6.02
2023-02-20T01:39:34.966Z,6.02
2023-02-20T01:42:05.803Z,6.01
2023-02-20T01:44:37.560Z,6.01
2023-02-20T01:47:12.757Z,6.01
2023-02-20T01:49:57.976Z,6.02
2023-02-20T01:52:31.967Z,6.01
2023-02-20T01:55:11.343Z,6.00
2023-02-20T01:57:44.862Z,6.01
2023-02-20T02:00:18.419Z,5.99
2023-02-20T02:02:59.437Z,5.98
2023-02-20T02:05:29.257Z,5.96
2023-02-20T02:07:57.447Z,5.95
2023-02-20T02:10:32.656Z,5.96
2023-02-20T02:12:59.909Z,5.93
2023-02-20T02:15:27.033Z,5.93
2023-02-20T02:18:11.260Z,5.92
2023-02-20T02:21:11.076Z,5.95
2023-02-20T02:23:53.024Z,5.95
2023-02-20T02:26:57.415Z,5.93
2023-02-20T02:30:18.123Z,5.93
2023-02-20T02:33:03.187Z,5.93
2023-02-20T02:36:13.535Z,5.95
2023-02-20T02:39:23.302Z,5.95
2023-02-20T02:42:08.597Z,5.95
2023-02-20T02:46:00.468Z,5.97
2023-02-20T02:48:41.736Z,6.01
2023-02-20T02:51:19.584Z,6.06
2023-02-20T02:54:28.867Z,6.13
2023-02-20T02:57:25.504Z,6.19
2023-02-20T03:00:00.764Z,6.26
2023-02-20T03:02:39.930Z,6.33
2023-02-20T03:05:10.818Z,6.38
2023-02-20T03:07:40.276Z,6.43
2023-02-20T03:10:20.408Z,6.49
2023-02-20T03:12:51.089Z,6.53
2023-02-20T03:15:36.246Z,6.58
2023-02-20T03:18:18.004Z,6.62
2023-02-20T03:20:55.544Z,6.67
2023-02-20T03:23:32.596Z,6.70
2023-02-20T03:26:19.083Z,6.73
2023-02-20T03:29:04.152Z,6.76
2023-02-20T03:31:46.507Z,6.80
2023-02-20T03:34:44.688Z,6.83
2023-02-20T03:37:38.945Z,6.86
2023-02-20T03:40:30.051Z,6.89
2023-02-20T03:43:20.842Z,6.93
2023-02-20T03:45:48.996Z,6.95
2023-02-20T03:48:37.158Z,6.97
2023-02-20T03:51:23.029Z,6.98
2023-02-20T03:53:50.330Z,6.98
2023-02-20T03:56:32.902Z,6.98
2023-02-20T03:59:18.985Z,6.99
2023-02-20T04:01:54.801Z,6.99
2023-02-20T04:04:31.654Z,6.97
2023-02-20T04:07:01.657Z,7.00
2023-02-20T04:09:33.332Z,6.97
2023-02-20T04:12:12.022Z,6.97
2023-02-20T04:14:39.533Z,6.95
2023-02-20T04:17:14.613Z,6.93
2023-02-20T04:19:41.821Z,6.96
2023-02-20T04:22:17.789Z,6.94
2023-02-20T04:25:06.315Z,6.96
2023-02-20T04:27:33.833Z,6.98
2023-02-20T04:30:01.114Z,7.01
2023-02-20T04:32:28.229Z,7.03
2023-02-20T04:34:55.410Z,7.07
2023-02-20T04:37:22.539Z,7.08
2023-02-20T04:39:49.697Z,7.11
2023-02-20T04:42:16.693Z,7.14
2023-02-20T04:44:43.756Z,7.15
2023-02-20T04:47:17.887Z,7.16
2023-02-20T04:49:45.178Z,7.18
2023-02-20T04:52:12.488Z,7.20
2023-02-20T04:54:39.741Z,7.25
2023-02-20T04:57:06.815Z,7.27
2023-02-20T04:59:33.996Z,7.32
2023-02-20T05:02:02.111Z,7.32
2023-02-20T05:04:29.249Z,7.34
2023-02-20T05:06:56.789Z,7.36
2023-02-20T05:09:24.870Z,7.38
2023-02-20T05:11:52.585Z,7.37
2023-02-20T05:14:21.340Z,7.40
2023-02-20T05:16:49.267Z,7.42
2023-02-20T05:19:16.521Z,7.44
2023-02-20T05:22:03.941Z,7.45
2023-02-20T05:24:32.233Z,7.46
2023-02-20T05:27:00.007Z,7.46
2023-02-20T05:29:27.449Z,7.48
2023-02-20T05:31:54.807Z,7.53
2023-02-20T05:34:22.804Z,7.54
2023-02-20T05:36:50.188Z,7.57
2023-02-20T05:39:17.410Z,7.58
2023-02-20T05:41:45.251Z,7.61
2023-02-20T05:44:12.576Z,7.62
2023-02-20T05:46:43.475Z,7.65
2023-02-20T05:49:11.926Z,-144.16
2023-02-20T05:51:39.433Z,-144.16
2023-02-20T05:54:06.449Z,-144.16
2023-02-20T05:56:33.698Z,-144.16
2023-02-20T05:59:02.376Z,-144.16
2023-02-20T06:01:32.027Z,-144.16
2023-02-20T06:04:01.445Z,-144.16
2023-02-20T06:06:37.782Z,-144.16
2023-02-20T06:09:10.887Z,-144.16
2023-02-20T06:11:39.697Z,-144.16
2023-02-20T06:14:07.667Z,-144.16
2023-02-20T06:16:36.055Z,-144.16
2023-02-20T06:19:05.345Z,-144.16
2023-02-20T06:21:35.795Z,-144.16
2023-02-20T06:24:03.360Z,-144.16
2023-02-20T06:26:30.382Z,-144.16
2023-02-20T06:28:58.274Z,-144.16
2023-02-20T06:31:28.456Z,-144.16
2023-02-20T06:33:55.833Z,-144.16
2023-02-20T06:36:30.261Z,-144.16
2023-02-20T06:38:58.286Z,-144.16
2023-02-20T06:41:26.220Z,-144.16
2023-02-20T06:43:53.653Z,-144.16
2023-02-20T06:46:22.903Z,-144.16
2023-02-20T06:48:56.729Z,-144.16
2023-02-20T06:51:28.381Z,-144.16
2023-02-20T06:53:55.645Z,-144.16
2023-02-20T06:56:26.997Z,-144.16
2023-02-20T06:58:54.869Z,-144.16
2023-02-20T07:01:27.284Z,-144.16
2023-02-20T07:03:55.340Z,-144.16
2023-02-20T07:06:24.662Z,-144.16
2023-02-20T07:08:52.501Z,-144.16
2023-02-20T07:11:22.456Z,-144.16
2023-02-20T07:13:50.760Z,-144.16
2023-02-20T07:16:17.942Z,-144.16
2023-02-20T07:18:45.019Z,-144.16
2023-02-20T07:21:12.524Z,-144.16
2023-02-20T07:23:39.936Z,-144.16
2023-02-20T07:26:07.331Z,-144.16
2023-02-20T07:28:36.459Z,-144.16
2023-02-20T07:31:03.955Z,-144.16
2023-02-20T07:33:31.137Z,-144.16
2023-02-20T07:35:58.493Z,-144.16
2023-02-20T07:38:25.850Z,-144.16
2023-02-20T07:40:53.043Z,-144.16
2023-02-20T07:43:20.128Z,-144.16
2023-02-20T07:45:47.325Z,-144.16
2023-02-20T07:48:14.694Z,-144.16
2023-02-20T07:50:41.937Z,-144.16
2023-02-20T07:53:13.921Z,-144.16
2023-02-20T07:55:41.043Z,-144.16
2023-02-20T07:58:08.552Z,-144.16
2023-02-20T08:00:35.817Z,-144.16
2023-02-20T08:03:03.172Z,-144.16
2023-02-20T08:05:40.279Z,-144.16
2023-02-20T08:08:10.972Z,-144.16
2023-02-20T08:10:38.345Z,-144.16
2023-02-20T08:13:05.898Z,-144.16
2023-02-20T08:15:33.130Z,-144.16
2023-02-20T08:18:00.297Z,-144.16
2023-02-20T08:20:27.441Z,-144.16
2023-02-20T08:22:54.564Z,-144.16
2023-02-20T08:25:21.934Z,-144.16
2023-02-20T08:27:49.956Z,-144.16
2023-02-20T08:30:28.004Z,-144.16
2023-02-20T08:32:56.086Z,-144.16
2023-02-20T08:35:25.005Z,-144.16
2023-02-20T08:37:52.640Z,-144.16
2023-02-20T08:40:19.764Z,-144.16
2023-02-20T08:42:50.783Z,-144.16
2023-02-20T08:45:18.237Z,-144.16
2023-02-20T08:47:45.469Z,-144.16
2023-02-20T08:50:12.748Z,-144.16
2023-02-20T08:52:39.807Z,-144.16
2023-02-20T08:55:07.060Z,-144.16
2023-02-20T08:57:34.431Z,-144.16
2023-02-20T09:00:01.879Z,-144.16
2023-02-20T09:02:29.666Z,-144.16
2023-02-20T09:04:57.822Z,-144.16
2023-02-20T09:07:25.386Z,-144.16
2023-02-20T09:09:52.669Z,-144.16
2023-02-20T09:12:20.272Z,-144.16
2023-02-20T09:14:47.647Z,-144.16
2023-02-20T09:17:14.865Z,-144.16
2023-02-20T09:19:42.246Z,-144.16
2023-02-20T09:22:09.629Z,-144.16
2023-02-20T09:24:36.843Z,-144.16
2023-02-20T09:27:06.423Z,-144.16
2023-02-20T09:29:33.828Z,-144.16
2023-02-20T09:32:01.051Z,-144.16
2023-02-20T09:34:28.510Z,-144.16
2023-02-20T09:36:56.033Z,-144.16
2023-02-20T09:39:34.583Z,-144.16
2023-02-20T09:42:23.541Z,-144.16
2023-02-20T09:45:19.053Z,-144.16
2023-02-20T09:47:51.937Z,-144.16
2023-02-20T09:50:43.692Z,-144.16
2023-02-20T09:53:42.679Z,-144.16
2023-02-20T09:56:21.955Z,-144.16
2023-02-20T09:59:28.596Z,-144.16
2023-02-20T10:02:20.780Z,-144.16
2023-02-20T10:05:00.812Z,-144.16
2023-02-20T10:07:33.043Z,-144.16
2023-02-20T10:10:08.451Z,-144.16
2023-02-20T10:12:56.813Z,-144.16
2023-02-20T10:15:28.967Z,-144.16
2023-02-20T10:18:24.665Z,-144.16
2023-02-20T10:21:12.917Z,-144.16
2023-02-20T10:24:04.937Z,-144.16
2023-02-20T10:26:43.529Z,-144.16
2023-02-20T10:29:37.279Z,-144.16
2023-02-20T10:32:11.331Z,-144.16
2023-02-20T10:34:50.193Z,-144.16
2023-02-20T10:37:46.652Z,-144.16
2023-02-20T10:40:55.546Z,-144.16
2023-02-20T10:43:39.651Z,-144.16
2023-02-20T10:46:20.477Z,-144.16
2023-02-20T10:48:48.233Z,-144.16
2023-02-20T10:51:43.854Z,-144.16
2023-02-20T10:54:21.610Z,-144.16
2023-02-20T10:57:19.410Z,-144.16
2023-02-20T11:00:05.240Z,-144.16
2023-02-20T11:02:43.861Z,-144.16
2023-02-20T11:05:20.928Z,-144.16
2023-02-20T11:07:49.873Z,-144.16
2023-02-20T11:10:20.800Z,-144.16
2023-02-20T11:12:53.672Z,-144.16
2023-02-20T11:15:25.858Z,-144.16
2023-02-20T11:17:55.564Z,-144.16
2023-02-20T11:20:46.118Z,-144.16
2023-02-20T11:23:41.447Z,-144.16
2023-02-20T11:26:31.929Z,-144.16
2023-02-20T11:29:17.472Z,-144.16
2023-02-20T11:31:48.084Z,-144.16
2023-02-20T11:34:33.015Z,-144.16
2023-02-20T11:37:06.403Z,-144.16
2023-02-20T11:39:34.546Z,-144.16
2023-02-20T11:42:20.861Z,-144.16
2023-02-20T11:45:12.533Z,-144.16
2023-02-20T11:47:39.710Z,-144.16
2023-02-20T11:50:19.563Z,-144.16
2023-02-20T11:53:05.337Z,-144.16
2023-02-20T11:55:33.624Z,-144.16
2023-02-20T11:58:02.494Z,-144.16
2023-02-20T12:00:46.462Z,-144.16
2023-02-20T12:03:24.436Z,-144.16
2023-02-20T12:05:52.656Z,-144.16
2023-02-20T12:08:38.534Z,-144.16
2023-02-20T12:11:18.174Z,-144.16
2023-02-20T12:13:48.750Z,-144.16
2023-02-20T12:16:56.590Z,-144.16
2023-02-20T12:19:51.161Z,-144.16
2023-02-20T12:22:30.641Z,-144.16
2023-02-20T12:25:27.208Z,-144.16
2023-02-20T12:28:00.275Z,-144.16
2023-02-20T12:31:13.325Z,-144.16
2023-02-20T12:34:13.894Z,-144.16
2023-02-20T12:36:49.516Z,-144.16
2023-02-20T12:39:39.026Z,-144.16
2023-02-20T12:42:31.014Z,-144.16
2023-02-20T12:45:36.594Z,-144.16
2023-02-20T12:48:40.655Z,-144.16
2023-02-20T12:51:26.069Z,-144.16
2023-02-20T12:54:14.831Z,-144.16
2023-02-20T12:57:13.426Z,-144.16
2023-02-20T13:00:07.161Z,-144.16
2023-02-20T13:02:58.838Z,-144.16
2023-02-20T13:05:27.866Z,-144.16
2023-02-20T13:08:04.984Z,-144.16
2023-02-20T13:10:35.812Z,-144.16
2023-02-20T13:13:03.145Z,-144.16
2023-02-20T13:16:26.351Z,-144.16
2023-02-20T13:19:32.938Z,-144.16
2023-02-20T13:22:00.173Z,-144.16
2023-02-20T13:24:30.608Z,-144.16
2023-02-20T13:27:07.032Z,-144.16
2023-02-20T13:29:58.806Z,-144.16
2023-02-20T13:32:33.368Z,-144.16
2023-02-20T13:35:40.774Z,-144.16
2023-02-20T13:38:17.832Z,-144.16
2023-02-20T13:40:57.039Z,-144.16
2023-02-20T13:43:27.057Z,-144.16
2023-02-20T13:46:17.891Z,-144.16
2023-02-20T13:48:51.789Z,-144.16
2023-02-20T13:51:22.322Z,-144.16
2023-02-20T13:53:57.126Z,-144.16
2023-02-20T13:56:43.996Z,-144.16
2023-02-20T13:59:18.048Z,-144.16
2023-02-20T14:02:17.361Z,-144.16
2023-02-20T14:05:00.780Z,-144.16
2023-02-20T14:07:38.061Z,-144.16
2023-02-20T14:10:25.865Z,-144.16
2023-02-20T14:13:13.078Z,-144.16
2023-02-20T14:15:59.820Z,-144.16
2023-02-20T14:18:36.156Z,-144.16
2023-02-20T14:21:21.265Z,-144.16
2023-02-20T14:23:53.297Z,-144.16
2023-02-20T14:26:34.344Z,-144.16
2023-02-20T14:29:01.650Z,-144.16
2023-02-20T14:31:35.994Z,-144.16
2023-02-20T14:34:35.809Z,-144.16
2023-02-20T14:37:15.830Z,-144.16
2023-02-20T14:39:58.939Z,-144.16
2023-02-20T14:42:26.833Z,-144.16
2023-02-20T14:45:08.307Z,-144.16
2023-02-20T14:47:38.325Z,-144.16
2023-02-20T14:50:36.989Z,-144.16
2023-02-20T14:53:20.837Z,-144.16
2023-02-20T14:55:51.694Z,-144.16
2023-02-20T14:58:23.536Z,-144.16
2023-02-20T15:00:53.625Z,-144.16
2023-02-20T15:03:31.579Z,-144.16
2023-02-20T15:06:04.375Z,-144.16
2023-02-20T15:08:35.967Z,-144.16
2023-02-20T15:11:13.534Z,-144.16
2023-02-20T15:13:46.641Z,-144.16
2023-02-20T15:16:18.417Z,-144.16
2023-02-20T15:18:50.116Z,-144.16
2023-02-20T15:21:40.755Z,-144.16
2023-02-20T15:24:37.413Z,-144.16
2023-02-20T15:27:33.336Z,-144.16
2023-02-20T15:30:16.644Z,-144.16
2023-02-20T15:32:52.424Z,-144.16
2023-02-20T15:35:28.802Z,-144.16
2023-02-20T15:38:00.025Z,-144.16
2023-02-20T15:40:33.155Z,-144.16
2023-02-20T15:43:04.982Z,-144.16
2023-02-20T15:45:37.675Z,-144.16
2023-02-20T15:48:07.312Z,-144.16
2023-02-20T15:50:35.238Z,-144.16
2023-02-20T15:53:03.595Z,-144.16
2023-02-20T15:55:33.852Z,-144.16
2023-02-20T15:58:03.022Z,-144.16
2023-02-20T16:00:33.759Z,-144.16
2023-02-20T16:03:02.229Z,-144.16
2023-02-20T16:05:29.759Z,-144.16
2023-02-20T16:07:58.020Z,-144.16
2023-02-20T16:10:25.913Z,-144.16
2023-02-20T16:12:58.803Z,-144.16
2023-02-20T16:15:26.430Z,-144.16
2023-02-20T16:17:54.405Z,-144.16
2023-02-20T16:20:25.001Z,-144.16
2023-02-20T16:22:52.766Z,-144.16
2023-02-20T16:25:22.599Z,-144.16
2023-02-20T16:27:53.718Z,-144.16
2023-02-20T16:30:33.880Z,-144.16
2023-02-20T16:33:03.635Z,-144.16
2023-02-20T16:35:30.817Z,-144.16
2023-02-20T16:37:58.084Z,-144.16
2023-02-20T16:40:25.217Z,-144.16
2023-02-20T16:42:52.432Z,-144.16
2023-02-20T16:45:21.096Z,-144.16
2023-02-20T16:47:54.676Z,-144.16
2023-02-20T16:50:31.673Z,-144.16
2023-02-20T16:53:03.276Z,-144.16
2023-02-20T16:55:44.399Z,-144.16
2023-02-20T16:58:11.697Z,-144.16
2023-02-20T17:00:54.963Z,-144.16
2023-02-20T17:03:24.263Z,-144.16
2023-02-20T17:05:58.448Z,-144.16
2023-02-20T17:08:29.226Z,-144.16
2023-02-20T17:10:56.471Z,-144.16
2023-02-20T17:13:23.709Z,-144.16
2023-02-20T17:15:50.878Z,-144.16
2023-02-20T17:18:18.462Z,-144.16
2023-02-20T17:20:45.822Z,-144.16
2023-02-20T17:23:12.972Z,-144.16
2023-02-20T17:25:39.947Z,-144.16
2023-02-20T17:28:07.263Z,-144.16
2023-02-20T17:30:34.702Z,-144.16
2023-02-20T17:33:02.129Z,-144.16
2023-02-20T17:35:29.348Z,-144.16
2023-02-20T17:37:56.511Z,-144.16
2023-02-20T17:40:23.786Z,-144.16
2023-02-20T17:42:50.924Z,-144.16
2023-02-20T17:45:18.187Z,-144.16
2023-02-20T17:47:45.375Z,-144.16
2023-02-20T17:50:23.203Z,-144.16
2023-02-20T17:52:54.617Z,-144.16
2023-02-20T17:55:25.787Z,-144.16
2023-02-20T17:57:53.712Z,-144.16
2023-02-20T18:00:21.911Z,-144.16
2023-02-20T18:02:49.305Z,-144.16
2023-02-20T18:05:16.752Z,-144.16
2023-02-20T18:07:44.021Z,-144.16
2023-02-20T18:10:11.260Z,-144.16
2023-02-20T18:12:39.125Z,-144.16
2023-02-20T18:15:06.749Z,-144.16
2023-02-20T18:17:35.228Z,-144.16
2023-02-20T18:20:02.309Z,-144.16
2023-02-20T18:22:31.949Z,-144.16
2023-02-20T18:24:59.083Z,-144.16
2023-02-20T18:27:26.122Z,-144.16
2023-02-20T18:29:53.135Z,-144.16
2023-02-20T18:32:20.301Z,-144.16
2023-02-20T18:34:47.982Z,-144.16
2023-02-20T18:37:15.219Z,-144.16
2023-02-20T18:39:45.935Z,-144.16
2023-02-20T18:42:12.979Z,-144.16
2023-02-20T18:44:40.053Z,-144.16
2023-02-20T18:47:09.321Z,-144.16
2023-02-20T18:49:36.777Z,-144.16
2023-02-20T18:52:05.063Z,-144.16
2023-02-20T18:54:35.249Z,-144.16
2023-02-20T18:57:04.346Z,-144.16
2023-02-20T18:59:31.933Z,-144.16
2023-02-20T19:02:00.024Z,-144.16
2023-02-20T19:04:27.472Z,-144.16
2023-02-20T19:06:55.000Z,-144.16
2023-02-20T19:09:24.613Z,-144.16
2023-02-20T19:11:55.265Z,-144.16
2023-02-20T19:14:25.322Z,-144.16
2023-02-20T19:16:57.373Z,-144.16
2023-02-20T19:19:31.605Z,-144.16
2023-02-20T19:21:59.574Z,-144.16
2023-02-20T19:24:27.100Z,-144.16
2023-02-20T19:26:54.212Z,-144.16
2023-02-20T19:29:28.796Z,-144.16
2023-02-20T19:32:00.368Z,-144.16
2023-02-20T19:34:27.478Z,-144.16
2023-02-20T19:36:54.855Z,-144.16
2023-02-20T19:39:22.049Z,-144.16
2023-02-20T19:41:50.634Z,-144.16
2023-02-20T19:44:18.004Z,-144.16
2023-02-20T19:46:45.086Z,-144.16
2023-02-20T19:49:12.740Z,-144.16
2023-02-20T19:51:50.904Z,-144.16
2023-02-20T19:54:22.321Z,-144.16
2023-02-20T19:56:52.995Z,-144.16
2023-02-20T19:59:20.480Z,-144.16
2023-02-20T20:02:00.004Z,-144.16
2023-02-20T20:04:30.659Z,-144.16
2023-02-20T20:06:58.289Z,-144.16
2023-02-20T20:09:36.031Z,-144.16
2023-02-20T20:12:26.032Z,-144.16
2023-02-20T20:14:53.784Z,-144.16
2023-02-20T20:17:21.649Z,-144.16
2023-02-20T20:19:58.900Z,-144.16
2023-02-20T20:22:30.883Z,-144.16
2023-02-20T20:24:59.187Z,-144.16
2023-02-20T20:27:26.366Z,-144.16
2023-02-20T20:29:53.624Z,-144.16
2023-02-20T20:32:21.950Z,-144.16
2023-02-20T20:34:55.316Z,-144.16
2023-02-20T20:37:24.943Z,-144.16
2023-02-20T20:39:54.247Z,-144.16
2023-02-20T20:42:25.147Z,-144.16
2023-02-20T20:44:58.975Z,-144.16
2023-02-20T20:47:29.923Z,-144.16
2023-02-20T20:49:57.984Z,-144.16
2023-02-20T20:52:27.144Z,-144.16
2023-02-20T20:54:56.848Z,-144.16
2023-02-20T20:57:28.350Z,-144.16
2023-02-20T20:59:56.067Z,-144.16
2023-02-20T21:02:23.960Z,-144.16
2023-02-20T21:04:57.851Z,-144.16
2023-02-20T21:07:35.230Z,-144.16
2023-02-20T21:10:02.595Z,-144.16
2023-02-20T21:12:29.976Z,-144.16
2023-02-20T21:14:57.353Z,-144.16
2023-02-20T21:17:24.835Z,-144.16
2023-02-20T21:19:52.197Z,-144.16
2023-02-20T21:22:19.278Z,-144.16
2023-02-20T21:24:46.497Z,-144.16
2023-02-20T21:27:13.624Z,-144.16
2023-02-20T21:29:41.514Z,-144.16
2023-02-20T21:32:08.881Z,-144.16
2023-02-20T21:34:36.258Z,-144.16
2023-02-20T21:37:03.474Z,-144.16
2023-02-20T21:39:30.492Z,-144.16
2023-02-20T21:42:16.357Z,-144.16
2023-02-20T21:44:47.804Z,-144.16
2023-02-20T21:47:17.399Z,-144.16
2023-02-20T21:49:48.059Z,-144.16
2023-02-20T21:52:17.621Z,-144.16
2023-02-20T21:54:54.205Z,-144.16
2023-02-20T21:57:21.612Z,-144.16
2023-02-20T21:59:48.657Z,-144.16
2023-02-20T22:02:19.277Z,-144.16
2023-02-20T22:04:46.635Z,-144.16
2023-02-20T22:07:34.139Z,-144.16
2023-02-20T22:10:19.923Z,-144.16
2023-02-20T22:13:05.825Z,-144.16
2023-02-20T22:15:52.027Z,-144.16
2023-02-20T22:18:37.880Z,-144.16
2023-02-20T22:21:23.774Z,-144.16
2023-02-20T22:24:09.980Z,-144.16
2023-02-20T22:26:55.563Z,-144.16
2023-02-20T22:29:41.670Z,-144.16
2023-02-20T22:32:27.398Z,-144.16
2023-02-20T22:35:13.485Z,-144.16
2023-02-20T22:38:02.782Z,-144.16
2023-02-20T22:40:48.572Z,-144.16
2023-02-20T22:43:34.339Z,-144.16
2023-02-20T22:46:20.381Z,-144.16
2023-02-20T22:49:06.009Z,-144.16
2023-02-20T22:51:52.248Z,-144.16
2023-02-20T22:54:42.581Z,-144.16
2023-02-20T22:57:28.808Z,-144.16
2023-02-20T23:00:14.518Z,-144.16
2023-02-20T23:03:00.745Z,-144.16
2023-02-20T23:05:46.213Z,-144.16
2023-02-20T23:08:32.111Z,-144.16
2023-02-20T23:11:17.959Z,-144.16
2023-02-20T23:14:05.980Z,-144.16
2023-02-20T23:16:51.717Z,-144.16
2023-02-20T23:19:37.717Z,-144.16
2023-02-20T23:22:23.723Z,-144.16
2023-02-20T23:25:09.613Z,-144.16
2023-02-20T23:27:55.314Z,-144.16
2023-02-20T23:30:41.049Z,-144.16
2023-02-20T23:33:26.882Z,-144.16
2023-02-20T23:36:12.621Z,-144.16
2023-02-20T23:38:58.372Z,-144.16
2023-02-20T23:41:44.412Z,-144.16
2023-02-20T23:44:31.854Z,-144.16
2023-02-20T23:47:17.711Z,-144.16
2023-02-20T23:50:04.722Z,-144.16
2023-02-20T23:52:50.493Z,-144.16
2023-02-20T23:55:35.823Z,-144.16
2023-02-20T23:58:21.772Z,-144.16
